createdAt,value
2017-11-07T00:00:26.334Z,39.00
2017-11-07T00:02:34.908Z,39.40
2017-11-07T00:04:45.158Z,36.83
2017-11-07T00:06:57.530Z,37.87
2017-11-07T00:09:11.270Z,35.63
2017-11-07T00:11:17.251Z,34.60
2017-11-07T00:13:24.113Z,35.00
2017-11-07T00:15:30.736Z,34.70
2017-11-07T00:17:39.124Z,34.80
2017-11-07T00:19:47.181Z,33.77
2017-11-07T00:21:57.065Z,34.73
2017-11-07T00:24:06.004Z,33.03
2017-11-07T00:26:12.503Z,33.47
2017-11-07T00:28:19.851Z,31.73
2017-11-07T00:30:27.286Z,33.20
2017-11-07T00:32:34.987Z,31.90
2017-11-07T00:34:44.016Z,28.67
2017-11-07T00:36:50.768Z,30.30
2017-11-07T00:38:57.515Z,29.90
2017-11-07T00:41:04.578Z,29.17
2017-11-07T00:43:12.761Z,27.70
2017-11-07T00:45:24.530Z,30.17
2017-11-07T00:47:31.731Z,27.43
2017-11-07T00:49:51.843Z,27.57
2017-11-07T00:52:09.956Z,26.70
2017-11-07T00:54:17.704Z,26.20
2017-11-07T00:56:23.516Z,25.33
2017-11-07T00:58:30.733Z,25.40
2017-11-07T01:00:37.477Z,24.30
2017-11-07T01:02:44.111Z,25.27
2017-11-07T01:05:02.692Z,23.97
2017-11-07T01:07:12.600Z,23.23
2017-11-07T01:09:21.065Z,24.10
2017-11-07T01:11:43.984Z,24.20
2017-11-07T01:13:53.084Z,22.80
2017-11-07T01:16:00.363Z,23.67
2017-11-07T01:18:06.550Z,22.43
2017-11-07T01:20:13.290Z,23.20
2017-11-07T01:22:19.300Z,22.30
2017-11-07T01:24:25.900Z,22.40
2017-11-07T01:26:31.592Z,22.73
2017-11-07T01:28:37.492Z,19.40
2017-11-07T01:30:43.282Z,20.10
2017-11-07T01:32:49.534Z,21.03
2017-11-07T01:34:56.557Z,20.33
2017-11-07T01:37:13.495Z,19.37
2017-11-07T01:39:25.264Z,19.07
2017-11-07T01:41:31.127Z,19.60
2017-11-07T01:43:37.313Z,18.80
2017-11-07T01:45:44.546Z,19.17
2017-11-07T01:47:53.743Z,19.00
2017-11-07T01:50:01.478Z,18.20
2017-11-07T01:52:09.661Z,16.80
2017-11-07T01:54:15.231Z,17.80
2017-11-07T01:56:21.384Z,17.93
2017-11-07T01:58:29.109Z,18.10
2017-11-07T02:02:49.195Z,16.73
2017-11-07T02:04:56.374Z,15.63
2017-11-07T02:07:06.886Z,16.60
2017-11-07T02:09:13.849Z,14.47
2017-11-07T02:11:20.833Z,15.77
2017-11-07T02:13:26.319Z,15.80
2017-11-07T02:15:31.922Z,15.53
2017-11-07T02:17:38.744Z,15.10
2017-11-07T02:19:47.763Z,15.20
2017-11-07T02:21:56.471Z,15.00
2017-11-07T02:24:06.405Z,14.23
2017-11-07T02:26:18.008Z,13.90
2017-11-07T02:28:24.728Z,14.53
2017-11-07T02:30:33.340Z,14.40
2017-11-07T02:32:39.835Z,14.10
2017-11-07T02:34:46.699Z,13.20
2017-11-07T02:36:53.044Z,13.13
2017-11-07T02:38:59.400Z,13.33
2017-11-07T02:41:08.927Z,13.63
2017-11-07T02:43:14.531Z,12.90
2017-11-07T02:45:22.781Z,12.27
2017-11-07T02:47:31.544Z,11.90
2017-11-07T02:49:37.062Z,12.50
2017-11-07T02:51:42.561Z,13.40
2017-11-07T02:53:51.441Z,12.60
2017-11-07T02:55:58.744Z,12.33
2017-11-07T02:58:07.896Z,11.83
2017-11-07T03:00:17.870Z,12.53
2017-11-07T03:02:25.610Z,10.80
2017-11-07T03:04:32.556Z,12.20
2017-11-07T03:06:38.331Z,12.30
2017-11-07T03:08:43.999Z,12.63
2017-11-07T03:10:50.319Z,10.90
2017-11-07T03:13:01.667Z,10.83
2017-11-07T03:15:08.632Z,10.67
2017-11-07T03:17:14.083Z,11.10
2017-11-07T03:19:19.627Z,11.63
2017-11-07T03:21:30.527Z,10.57
2017-11-07T03:23:35.853Z,10.50
2017-11-07T03:25:41.454Z,10.53
2017-11-07T03:27:47.797Z,10.70
2017-11-07T03:29:54.207Z,10.10
2017-11-07T03:32:00.344Z,9.23
2017-11-07T03:34:06.506Z,10.60
2017-11-07T03:36:12.904Z,10.10
2017-11-07T03:38:18.340Z,9.93
2017-11-07T03:40:24.009Z,9.53
2017-11-07T03:42:29.879Z,9.63
2017-11-07T03:44:35.619Z,10.27
2017-11-07T03:46:41.470Z,9.70
2017-11-07T03:48:47.901Z,9.50
2017-11-07T03:50:54.492Z,9.27
2017-11-07T03:53:06.121Z,9.60
2017-11-07T03:55:15.463Z,9.07
2017-11-07T03:57:21.094Z,9.23
2017-11-07T03:59:26.647Z,7.90
2017-11-07T04:01:32.837Z,8.57
2017-11-07T04:03:39.950Z,8.10
2017-11-07T04:05:51.541Z,8.73
2017-11-07T04:08:03.702Z,8.90
2017-11-07T04:10:18.682Z,9.90
2017-11-07T04:12:24.684Z,12.27
2017-11-07T04:14:30.184Z,10.27
2017-11-07T04:16:44.291Z,10.37
2017-11-07T04:18:51.407Z,12.00
2017-11-07T04:21:10.422Z,20.20
2017-11-07T04:25:37.072Z,193.40
2017-11-07T04:27:46.867Z,266.03
2017-11-07T04:29:53.105Z,241.67
2017-11-07T04:31:59.647Z,212.40
2017-11-07T04:34:09.495Z,202.07
2017-11-07T04:36:15.139Z,192.87
2017-11-07T04:38:21.070Z,186.17
2017-11-07T04:40:26.780Z,187.20
2017-11-07T04:42:32.750Z,183.60
2017-11-07T04:44:38.653Z,177.67
2017-11-07T04:46:44.271Z,168.03
2017-11-07T04:48:50.210Z,165.27
2017-11-07T04:50:56.913Z,162.00
2017-11-07T04:53:06.187Z,163.17
2017-11-07T04:55:12.808Z,152.87
2017-11-07T04:57:21.714Z,153.20
2017-11-07T04:59:27.269Z,148.73
2017-11-07T05:01:37.162Z,266.30
2017-11-07T05:03:42.691Z,448.83
2017-11-07T05:05:49.469Z,406.93
2017-11-07T05:07:57.110Z,410.97
2017-11-07T05:10:03.850Z,403.00
2017-11-07T05:12:09.523Z,393.87
2017-11-07T05:14:15.277Z,371.33
2017-11-07T05:16:21.560Z,369.83
2017-11-07T05:18:29.450Z,354.50
2017-11-07T05:20:35.502Z,346.87
2017-11-07T05:22:42.546Z,333.87
2017-11-07T05:24:50.428Z,325.80
2017-11-07T05:26:56.668Z,313.63
2017-11-07T05:29:04.882Z,312.80
2017-11-07T05:31:14.572Z,304.37
2017-11-07T05:33:20.635Z,301.03
2017-11-07T05:35:29.856Z,297.97
2017-11-07T05:37:41.131Z,289.90
2017-11-07T05:39:53.696Z,279.37
2017-11-07T05:41:59.400Z,282.93
2017-11-07T05:44:07.671Z,274.80
2017-11-07T05:46:14.229Z,269.27
2017-11-07T05:48:19.834Z,261.90
2017-11-07T05:50:27.860Z,259.00
2017-11-07T05:52:35.917Z,261.70
2017-11-07T05:54:50.814Z,252.80
2017-11-07T05:56:58.924Z,252.80
2017-11-07T05:59:08.629Z,241.77
2017-11-07T06:01:15.327Z,235.27
2017-11-07T06:03:21.916Z,235.40
2017-11-07T06:05:27.961Z,226.67
2017-11-07T06:07:33.924Z,223.77
2017-11-07T06:09:50.357Z,222.97
2017-11-07T06:11:57.352Z,217.47
2017-11-07T06:14:06.380Z,214.10
2017-11-07T06:16:13.603Z,213.47
2017-11-07T06:18:23.074Z,198.53
2017-11-07T06:20:29.830Z,202.50
2017-11-07T06:22:39.234Z,195.10
2017-11-07T06:24:46.909Z,195.30
2017-11-07T06:26:53.063Z,187.40
2017-11-07T06:28:59.048Z,180.33
2017-11-07T06:31:05.843Z,181.07
2017-11-07T06:33:11.528Z,174.20
2017-11-07T06:35:17.461Z,174.40
2017-11-07T06:37:23.571Z,169.40
2017-11-07T06:39:30.908Z,167.10
2017-11-07T06:41:40.133Z,162.87
2017-11-07T06:43:46.268Z,166.30
2017-11-07T06:45:52.989Z,156.20
2017-11-07T06:47:58.638Z,154.83
2017-11-07T06:50:04.793Z,151.80
2017-11-07T06:52:10.776Z,148.83
2017-11-07T06:54:19.130Z,149.30
2017-11-07T06:56:26.988Z,144.67
2017-11-07T06:58:34.844Z,143.67
2017-11-07T07:00:40.708Z,139.80
2017-11-07T07:02:46.424Z,139.63
2017-11-07T07:04:54.075Z,136.00
2017-11-07T07:07:00.594Z,135.67
2017-11-07T07:09:08.871Z,132.20
2017-11-07T07:11:14.442Z,129.00
2017-11-07T07:13:20.434Z,127.33
2017-11-07T07:15:27.802Z,125.20
2017-11-07T07:17:33.438Z,122.93
2017-11-07T07:19:43.169Z,121.60
2017-11-07T07:21:51.509Z,118.03
2017-11-07T07:24:01.772Z,114.07
2017-11-07T07:26:08.656Z,112.37
2017-11-07T07:28:14.580Z,114.80
2017-11-07T07:30:20.158Z,109.33
2017-11-07T07:32:27.849Z,105.47
2017-11-07T07:34:33.470Z,105.67
2017-11-07T07:36:39.556Z,103.37
2017-11-07T07:38:47.218Z,101.23
2017-11-07T07:40:56.582Z,101.90
2017-11-07T07:43:04.710Z,94.13
2017-11-07T07:45:15.071Z,98.07
2017-11-07T07:47:23.334Z,92.50
2017-11-07T07:49:36.029Z,94.30
2017-11-07T07:51:42.872Z,91.07
2017-11-07T07:53:49.574Z,90.23
2017-11-07T07:55:56.616Z,87.97
2017-11-07T07:58:04.468Z,90.13
2017-11-07T08:00:18.700Z,84.53
2017-11-07T08:02:24.927Z,81.17
2017-11-07T08:04:31.178Z,76.73
2017-11-07T08:06:37.310Z,79.70
2017-11-07T08:08:47.083Z,79.67
2017-11-07T08:10:54.861Z,76.33
2017-11-07T08:13:01.976Z,78.07
2017-11-07T08:15:11.668Z,72.90
2017-11-07T08:17:18.457Z,71.97
2017-11-07T08:19:26.857Z,73.07
2017-11-07T08:25:48.074Z,67.70
2017-11-07T08:27:59.425Z,63.83
2017-11-07T08:30:10.858Z,64.10
2017-11-07T08:32:20.588Z,63.67
2017-11-07T08:34:28.694Z,63.63
2017-11-07T08:36:34.818Z,58.90
2017-11-07T08:38:43.270Z,61.70
2017-11-07T08:40:54.671Z,61.40
2017-11-07T08:43:01.908Z,61.40
2017-11-07T08:45:14.425Z,57.30
2017-11-07T08:48:28.267Z,56.93
2017-11-07T08:59:24.705Z,54.57
2017-11-07T09:01:32.277Z,49.80
2017-11-07T09:04:23.467Z,51.97
2017-11-07T09:06:32.289Z,49.03
2017-11-07T09:08:39.440Z,50.70
2017-11-07T09:10:45.276Z,49.60
2017-11-07T09:13:44.581Z,47.43
2017-11-07T09:15:57.939Z,45.47
2017-11-07T09:18:11.082Z,46.17
2017-11-07T09:20:20.700Z,47.13
2017-11-07T09:22:31.245Z,44.47
2017-11-07T09:24:47.432Z,43.17
2017-11-07T09:26:58.768Z,44.50
2017-11-07T09:29:20.294Z,43.83
2017-11-07T09:31:28.974Z,42.80
2017-11-07T09:33:36.941Z,43.03
2017-11-07T09:35:43.726Z,41.47
2017-11-07T09:37:50.252Z,38.83
2017-11-07T09:39:57.465Z,39.73
2017-11-07T09:42:06.475Z,39.43
2017-11-07T09:44:17.945Z,39.47
2017-11-07T09:46:23.614Z,37.47
2017-11-07T09:48:30.796Z,36.00
2017-11-07T09:50:37.319Z,36.50
2017-11-07T09:52:43.326Z,36.50
2017-11-07T09:54:51.847Z,35.47
2017-11-07T09:56:57.989Z,37.77
2017-11-07T09:59:06.574Z,35.93
2017-11-07T10:01:12.477Z,37.50
2017-11-07T10:03:18.158Z,36.43
2017-11-07T10:05:30.638Z,34.10
2017-11-07T10:07:37.335Z,35.20
2017-11-07T10:09:44.648Z,33.57
2017-11-07T10:11:53.199Z,32.57
2017-11-07T10:14:02.245Z,33.10
2017-11-07T10:16:13.828Z,32.27
2017-11-07T10:18:19.990Z,31.50
2017-11-07T10:20:27.436Z,29.77
2017-11-07T10:22:33.285Z,30.33
2017-11-07T10:24:39.962Z,30.20
2017-11-07T10:26:45.940Z,29.83
2017-11-07T10:28:52.557Z,30.00
2017-11-07T10:31:06.296Z,28.90
2017-11-07T10:33:12.650Z,29.10
2017-11-07T10:35:18.766Z,30.57
2017-11-07T10:37:25.607Z,28.33
2017-11-07T10:39:32.179Z,26.60
2017-11-07T10:41:38.513Z,26.30
2017-11-07T10:43:48.548Z,27.70
2017-11-07T10:45:59.142Z,26.47
2017-11-07T10:48:07.908Z,27.60
2017-11-07T10:50:13.786Z,24.47
2017-11-07T10:52:19.522Z,26.03
2017-11-07T10:54:26.434Z,24.53
2017-11-07T10:56:33.583Z,25.27
2017-11-07T10:58:40.663Z,24.03
2017-11-07T11:00:49.480Z,23.37
2017-11-07T11:02:55.918Z,24.40
2017-11-07T11:05:04.289Z,24.53
2017-11-07T11:07:11.270Z,24.23
2017-11-07T11:09:17.614Z,23.17
2017-11-07T11:11:24.034Z,22.53
2017-11-07T11:13:31.263Z,22.70
2017-11-07T11:15:38.209Z,22.93
2017-11-07T11:17:45.472Z,23.10
2017-11-07T11:19:53.208Z,22.03
2017-11-07T11:22:03.147Z,22.43
2017-11-07T11:24:11.193Z,20.53
2017-11-07T11:26:21.051Z,21.73
2017-11-07T11:28:27.445Z,21.27
2017-11-07T11:30:34.508Z,21.10
2017-11-07T11:32:41.311Z,21.70
2017-11-07T11:34:49.073Z,21.87
2017-11-07T11:36:55.695Z,21.80
2017-11-07T11:41:14.330Z,20.13
2017-11-07T11:43:20.076Z,19.80
2017-11-07T11:45:25.718Z,19.57
2017-11-07T11:47:31.733Z,19.97
2017-11-07T11:49:40.782Z,19.97
2017-11-07T11:51:46.320Z,19.17
2017-11-07T11:53:53.133Z,19.40
2017-11-07T11:55:59.730Z,18.53
2017-11-07T11:58:06.912Z,17.80
2017-11-07T12:00:19.645Z,17.40
2017-11-07T12:02:25.542Z,17.40
2017-11-07T12:04:33.584Z,18.30
2017-11-07T12:06:39.461Z,18.93
2017-11-07T12:08:45.326Z,16.93
2017-11-07T12:10:51.863Z,16.73
2017-11-07T12:13:01.207Z,19.07
2017-11-07T12:15:10.978Z,17.93
2017-11-07T12:17:17.433Z,16.90
2017-11-07T12:19:24.150Z,16.57
2017-11-07T12:21:30.284Z,16.47
2017-11-07T12:23:36.876Z,15.50
2017-11-07T12:25:42.815Z,15.47
2017-11-07T12:27:50.032Z,15.77
2017-11-07T12:29:56.702Z,15.37
2017-11-07T12:32:05.282Z,15.90
2017-11-07T12:34:12.258Z,15.97
2017-11-07T12:36:19.178Z,16.70
2017-11-07T12:38:27.518Z,14.83
2017-11-07T12:40:33.532Z,15.60
2017-11-07T12:42:40.131Z,14.63
2017-11-07T12:44:46.722Z,14.80
2017-11-07T12:46:54.170Z,15.03
2017-11-07T12:49:04.965Z,13.70
2017-11-07T12:51:21.251Z,14.37
2017-11-07T12:53:28.080Z,15.00
2017-11-07T12:55:35.265Z,14.47
2017-11-07T12:57:43.894Z,15.20
2017-11-07T12:59:53.528Z,14.37
2017-11-07T13:02:02.361Z,14.33
2017-11-07T13:04:13.074Z,13.80
2017-11-07T13:06:23.648Z,12.77
2017-11-07T13:08:31.146Z,13.23
2017-11-07T13:13:06.875Z,14.50
2017-11-07T13:15:14.817Z,13.30
2017-11-07T13:17:24.325Z,12.53
2017-11-07T13:19:30.465Z,13.07
2017-11-07T13:21:37.903Z,12.50
2017-11-07T13:23:53.351Z,13.13
2017-11-07T13:26:06.906Z,13.20
2017-11-07T13:28:14.635Z,12.37
2017-11-07T13:32:43.680Z,13.50
2017-11-07T13:37:32.317Z,13.37
2017-11-07T13:39:41.433Z,12.27
2017-11-07T13:41:47.916Z,12.67
2017-11-07T13:43:57.792Z,12.33
2017-11-07T13:46:10.073Z,12.37
2017-11-07T13:48:18.707Z,12.20
2017-11-07T13:50:26.451Z,13.43
2017-11-07T13:52:36.652Z,12.70
2017-11-07T13:54:57.714Z,11.63
2017-11-07T13:57:15.831Z,11.83
2017-11-07T13:59:28.756Z,11.00
2017-11-07T14:01:39.604Z,13.43
2017-11-07T14:03:51.797Z,12.00
2017-11-07T14:06:12.234Z,12.40
2017-11-07T14:08:22.021Z,12.10
2017-11-07T14:10:34.855Z,11.47
2017-11-07T14:12:47.561Z,11.93
2017-11-07T14:14:56.021Z,11.13
2017-11-07T14:17:16.734Z,11.53
2017-11-07T14:19:24.629Z,11.47
2017-11-07T14:21:46.467Z,12.00
2017-11-07T14:26:25.697Z,12.00
2017-11-07T14:28:39.499Z,11.07
2017-11-07T14:30:49.108Z,11.20
2017-11-07T14:32:58.576Z,11.10
2017-11-07T14:35:26.121Z,10.97
2017-11-07T14:37:35.974Z,11.10
2017-11-07T14:42:17.790Z,10.77
2017-11-07T14:47:46.530Z,10.77
2017-11-07T14:52:21.579Z,11.10
2017-11-07T14:54:29.030Z,11.60
2017-11-07T14:56:37.274Z,10.83
2017-11-07T14:58:43.350Z,10.23
2017-11-07T15:00:52.720Z,10.90
2017-11-07T15:02:59.611Z,10.37
2017-11-07T15:05:10.758Z,10.47
2017-11-07T15:07:17.450Z,10.60
2017-11-07T15:09:27.156Z,10.53
2017-11-07T15:11:35.177Z,10.53
2017-11-07T15:13:43.209Z,10.13
2017-11-07T15:15:51.370Z,9.80
2017-11-07T15:18:10.447Z,10.43
2017-11-07T15:20:18.280Z,10.03
2017-11-07T15:22:25.054Z,9.63
2017-11-07T15:24:33.437Z,10.60
2017-11-07T15:26:40.915Z,10.13
2017-11-07T15:28:47.232Z,10.80
2017-11-07T15:30:55.963Z,11.00
2017-11-07T15:44:42.134Z,9.53
2017-11-07T15:46:50.017Z,10.20
2017-11-07T15:48:58.603Z,10.97
2017-11-07T15:51:04.776Z,10.43
2017-11-07T15:53:16.005Z,10.10
2017-11-07T16:57:59.403Z,10.73
2017-11-07T17:00:07.818Z,10.50
2017-11-07T17:02:16.123Z,10.67
2017-11-07T17:04:25.448Z,10.87
2017-11-07T17:06:34.765Z,11.63
2017-11-07T17:08:41.610Z,10.70
2017-11-07T17:10:51.096Z,10.40
2017-11-07T17:12:58.343Z,11.03
2017-11-07T17:15:11.568Z,10.47
2017-11-07T17:17:19.342Z,10.97
2017-11-07T17:19:27.683Z,9.43
2017-11-07T17:21:37.751Z,11.20
2017-11-07T17:23:44.885Z,11.33
2017-11-07T17:25:53.256Z,10.50
2017-11-07T17:28:02.232Z,10.90
2017-11-07T17:30:15.235Z,10.83
2017-11-07T17:32:23.196Z,10.60
2017-11-07T17:34:30.890Z,10.07
2017-11-07T17:36:59.589Z,10.90
2017-11-07T17:41:37.039Z,10.90
2017-11-07T17:43:56.495Z,10.70
2017-11-07T17:46:04.186Z,11.07
2017-11-07T17:48:22.409Z,11.03
2017-11-07T17:50:38.587Z,10.40
2017-11-07T17:52:51.594Z,11.40
2017-11-07T17:55:11.937Z,11.23
2017-11-07T17:57:30.197Z,10.83
2017-11-07T17:59:44.289Z,12.00
2017-11-07T18:01:52.180Z,11.50
2017-11-07T18:04:00.318Z,11.00
2017-11-07T18:06:15.498Z,11.27
2017-11-07T18:08:29.062Z,12.23
2017-11-07T18:10:44.440Z,10.73
2017-11-07T18:12:53.808Z,11.57
2017-11-07T18:17:26.061Z,11.23
2017-11-07T18:19:42.403Z,11.30
2017-11-07T18:21:52.119Z,11.50
2017-11-07T18:24:09.454Z,11.77
2017-11-07T18:26:22.273Z,11.53
2017-11-07T18:28:30.312Z,12.10
2017-11-07T18:30:37.436Z,12.00
2017-11-07T18:33:15.136Z,12.03
2017-11-07T18:35:34.331Z,12.07
2017-11-07T18:39:54.982Z,11.83
2017-11-07T18:42:02.980Z,11.90
2017-11-07T18:44:10.982Z,11.43
2017-11-07T18:46:17.759Z,11.43
2017-11-07T18:48:23.863Z,11.70
2017-11-07T18:50:32.213Z,11.47
2017-11-07T18:52:41.721Z,11.17
2017-11-07T18:54:50.558Z,11.77
2017-11-07T18:56:58.670Z,11.70
2017-11-07T18:59:11.508Z,11.63
2017-11-07T19:01:21.054Z,11.10
2017-11-07T19:03:28.067Z,11.50
2017-11-07T19:05:36.191Z,11.03
2017-11-07T19:07:44.177Z,11.33
2017-11-07T19:10:36.540Z,11.07
2017-11-07T19:12:45.100Z,11.00
2017-11-07T19:14:54.180Z,10.57
2017-11-07T19:17:00.475Z,11.60
2017-11-07T19:19:06.695Z,11.93
2017-11-07T19:21:14.510Z,11.40
2017-11-07T19:23:21.730Z,11.50
2017-11-07T19:25:29.535Z,11.77
2017-11-07T19:27:36.138Z,11.43
2017-11-07T19:29:46.459Z,11.70
2017-11-07T19:31:57.346Z,10.80
2017-11-07T19:34:04.538Z,11.30
2017-11-07T19:36:11.692Z,11.57
2017-11-07T19:38:21.517Z,11.87
2017-11-07T19:40:32.301Z,10.87
2017-11-07T19:42:41.654Z,10.73
2017-11-07T19:44:49.389Z,12.50
2017-11-07T19:47:00.947Z,11.87
2017-11-07T19:49:09.809Z,11.37
2017-11-07T19:51:16.613Z,11.47
2017-11-07T19:53:25.398Z,11.77
2017-11-07T19:55:32.045Z,11.73
2017-11-07T19:57:40.487Z,11.03
2017-11-07T19:59:47.989Z,10.83
2017-11-07T20:01:53.627Z,12.10
2017-11-07T20:04:00.133Z,11.27
2017-11-07T20:06:07.819Z,11.30
2017-11-07T20:08:16.300Z,12.20
2017-11-07T20:10:24.404Z,11.90
2017-11-07T20:12:30.425Z,11.10
2017-11-07T20:14:37.106Z,11.20
2017-11-07T20:16:43.792Z,11.27
2017-11-07T20:18:51.660Z,11.20
2017-11-07T20:21:00.575Z,11.23
2017-11-07T20:23:07.749Z,10.67
2017-11-07T20:25:21.976Z,10.90
2017-11-07T20:27:30.526Z,11.57
2017-11-07T20:29:39.855Z,11.27
2017-11-07T20:31:46.538Z,11.43
2017-11-07T20:33:52.180Z,11.77
2017-11-07T20:35:59.694Z,10.73
2017-11-07T20:38:07.119Z,10.73
2017-11-07T20:40:17.760Z,11.60
2017-11-07T20:42:26.278Z,10.97
2017-11-07T20:44:37.290Z,11.40
2017-11-07T20:46:50.764Z,11.30
2017-11-07T20:48:57.199Z,11.30
2017-11-07T20:51:03.758Z,10.50
2017-11-07T20:53:14.228Z,11.20
2017-11-07T20:55:23.007Z,11.00
2017-11-07T20:57:31.952Z,11.10
2017-11-07T20:59:41.173Z,11.63
2017-11-07T21:01:57.373Z,11.17
2017-11-07T21:04:10.149Z,11.47
2017-11-07T21:06:16.190Z,11.13
2017-11-07T21:08:24.308Z,10.70
2017-11-07T21:10:32.110Z,10.47
2017-11-07T21:12:39.229Z,10.40
2017-11-07T21:14:46.425Z,11.03
2017-11-07T21:16:53.141Z,11.00
2017-11-07T21:18:59.350Z,9.83
2017-11-07T21:21:06.169Z,10.80
2017-11-07T21:23:14.425Z,10.67
2017-11-07T21:27:42.485Z,11.00
2017-11-07T21:29:51.168Z,10.60
2017-11-07T21:34:19.767Z,11.77
2017-11-07T21:36:36.947Z,11.30
2017-11-07T21:38:50.693Z,11.13
2017-11-07T21:41:05.437Z,10.73
2017-11-07T21:43:18.872Z,9.97
2017-11-07T21:45:28.712Z,10.60
2017-11-07T21:49:53.419Z,10.83
2017-11-07T21:51:59.236Z,10.00
2017-11-07T21:54:06.140Z,11.27
2017-11-07T21:56:16.522Z,11.20
2017-11-07T21:58:22.786Z,10.70
2017-11-07T22:00:29.056Z,11.30
2017-11-07T22:02:36.400Z,10.00
2017-11-07T22:04:42.395Z,10.70
2017-11-07T22:06:50.272Z,11.13
2017-11-07T22:08:57.750Z,10.33
2017-11-07T22:11:03.731Z,11.30
2017-11-07T22:13:10.540Z,10.73
2017-11-07T22:15:17.305Z,11.50
2017-11-07T22:17:23.549Z,11.23
2017-11-07T22:19:31.443Z,11.40
2017-11-07T22:21:39.016Z,10.93
2017-11-07T22:23:45.181Z,10.77
2017-11-07T22:25:53.587Z,11.23
2017-11-07T22:28:00.083Z,11.20
2017-11-07T22:30:06.505Z,11.13
2017-11-07T22:32:12.220Z,10.80
2017-11-07T22:34:22.207Z,10.70
2017-11-07T22:36:29.313Z,10.60
2017-11-07T22:38:39.951Z,10.90
2017-11-07T22:40:46.470Z,10.40
2017-11-07T22:42:54.776Z,10.87
2017-11-07T22:45:02.083Z,10.77
2017-11-07T22:47:09.225Z,10.37
2017-11-07T22:49:15.919Z,10.43
2017-11-07T22:51:21.841Z,10.83
2017-11-07T22:53:29.178Z,9.90
2017-11-07T22:55:35.042Z,10.97
2017-11-07T22:57:46.633Z,9.97
2017-11-07T22:59:53.982Z,10.53
2017-11-07T23:02:00.562Z,10.83
2017-11-07T23:04:09.274Z,10.40
2017-11-07T23:06:19.558Z,10.30
2017-11-07T23:08:26.423Z,10.03
2017-11-07T23:10:32.709Z,10.77
2017-11-07T23:15:08.800Z,11.27
2017-11-07T23:17:19.075Z,11.57
2017-11-07T23:19:32.415Z,10.80
2017-11-07T23:21:58.842Z,11.30
2017-11-07T23:24:11.708Z,11.60
2017-11-07T23:26:20.148Z,11.20
2017-11-07T23:28:27.684Z,11.20
2017-11-07T23:30:52.365Z,11.60
2017-11-07T23:33:03.016Z,10.30
2017-11-07T23:35:22.978Z,11.07
2017-11-07T23:37:54.010Z,10.23
2017-11-07T23:40:05.873Z,10.67
2017-11-07T23:42:15.856Z,10.30
2017-11-07T23:44:45.452Z,10.13
2017-11-07T23:46:54.248Z,11.07
2017-11-07T23:51:39.805Z,11.00
2017-11-07T23:53:47.491Z,10.83
2017-11-07T23:55:59.412Z,10.23
2017-11-07T23:58:09.418Z,10.60
